Live Your Life

Объявление

Информация о пользователе

Привет, Гость! Войдите или зарегистрируйтесь.


Вы здесь » Live Your Life » Неформат


Неформат

Тем 1 страница 30 из 30

Тема Ответов Просмотров Последнее сообщение
11 233 Вчера 23:37:14  Pa-ku
2 Deviant  переснежник
8 255 Вчера 21:11:23  Teacook
175 5120 Вчера 17:47:41  Vitaminka
4 Атлантида  Kiros56488123
5 244 Вчера 14:40:54  Kiros56488123
5 В шаге от трона  Королевство Камбрия
6 159 Вчера 13:43:14  Королевство Камбрия
1 177 15-10-2018 20:25:56  Morgoth
28 793 15-10-2018 10:28:26  до_одури
74 3012 15-10-2018 08:40:05  DeWitt
3 121 15-10-2018 00:44:16  Hurley
10 Nex|t|us  Melinda
8 1059 13-10-2018 20:26:50  Melinda
11 Darkworld  Дымок
0 77 11-10-2018 21:38:18  Дымок
113 4683 09-10-2018 22:17:58  Automation baby
26 1062 09-10-2018 10:11:21  Огнеязыцый
198 11689 07-10-2018 13:13:25  LRS
15 blood & water  Aleander
4 243 06-10-2018 13:23:11  Aleander
44 4501 06-10-2018 00:00:27  Prologue
17 Нассау  Летучий Голландец  [ Тема 17 Page 1 Тема 17 Page 2 Тема 17 Page 3 ]
43 2211 05-10-2018 19:23:44  Флинт
16 1096 05-10-2018 12:27:23  Флинт
19 Holy Sh!t  грандоченька смерти
4 195 05-10-2018 00:19:17  грандоченька смерти
20 Tempus Futurum  Jonah
12 433 04-10-2018 11:26:01  Jonah
33 922 03-10-2018 06:27:02  Luiziata
22 Космический ветер  Кот капитана Флинта  [ Тема 22 Page 1 Тема 22 Page 2 ]
29 1403 02-10-2018 07:31:01  Кот капитана Флинта
2 166 29-09-2018 19:35:00  Fireridge
26 868 23-09-2018 12:51:55  Mowin
25 false impulse  aurum seneca
10 293 18-09-2018 21:51:52  aurum seneca
19 426 16-09-2018 18:43:03  Heath
0 109 01-09-2018 05:59:17  Jin Archer
28 Calmsector  banterface
1 149 30-08-2018 21:11:34  banterface
24 1216 22-08-2018 16:01:27  Эстелла Ортега
30 God's blessing  Сумэраги
7 524 22-08-2018 09:41:12  Сумэраги

Вы здесь » Live Your Life » Неформат


Рейтинг форумов | Создать форум бесплатно © 2007–2017 «QuadroSystems» LLC